createdAt,value
2023-05-17T00:01:53.222Z,9.60
2023-05-17T00:04:20.137Z,7.30
2023-05-17T00:06:46.599Z,9.70
2023-05-17T00:09:13.140Z,9.90
2023-05-17T00:11:39.722Z,10.30
2023-05-17T00:14:06.034Z,9.00
2023-05-17T00:16:32.490Z,8.60
2023-05-17T00:18:59.897Z,8.80
2023-05-17T00:21:26.514Z,9.40
2023-05-17T00:23:52.895Z,9.40
2023-05-17T00:26:19.596Z,9.10
2023-05-17T00:28:45.897Z,11.70
2023-05-17T00:31:13.938Z,8.10
2023-05-17T00:33:40.887Z,8.60
2023-05-17T00:36:07.602Z,8.70
2023-05-17T00:38:35.659Z,7.20
2023-05-17T00:41:01.990Z,12.60
2023-05-17T00:43:28.380Z,8.40
2023-05-17T00:45:55.940Z,9.50
2023-05-17T00:48:24.986Z,9.00
2023-05-17T00:50:53.057Z,8.60
2023-05-17T00:53:19.962Z,9.70
2023-05-17T00:55:46.626Z,11.80
2023-05-17T00:58:14.201Z,8.40
2023-05-17T01:00:41.178Z,10.40
2023-05-17T01:03:07.960Z,10.40
2023-05-17T01:05:34.450Z,11.70
2023-05-17T01:08:02.451Z,11.20
2023-05-17T01:10:50.017Z,9.40
2023-05-17T01:13:32.316Z,11.30
2023-05-17T01:16:10.030Z,9.20
2023-05-17T01:18:48.407Z,10.90
2023-05-17T01:21:36.714Z,13.40
2023-05-17T01:24:10.536Z,10.40
2023-05-17T01:26:45.320Z,14.20
2023-05-17T01:29:14.059Z,10.10
2023-05-17T01:31:44.054Z,12.60
2023-05-17T01:34:10.641Z,9.70
2023-05-17T01:36:37.811Z,10.40
2023-05-17T01:39:04.112Z,9.10
2023-05-17T01:41:35.976Z,9.40
2023-05-17T01:44:21.761Z,11.90
2023-05-17T01:46:52.594Z,9.20
2023-05-17T01:49:29.164Z,10.40
2023-05-17T01:52:16.564Z,10.10
2023-05-17T01:54:47.736Z,10.20
2023-05-17T01:57:14.884Z,10.60
2023-05-17T01:59:43.507Z,9.90
2023-05-17T02:02:11.307Z,12.90
2023-05-17T02:04:37.890Z,14.50
2023-05-17T02:07:04.313Z,13.00
2023-05-17T02:09:30.949Z,12.20
2023-05-17T02:11:57.339Z,13.60
2023-05-17T02:14:23.867Z,13.50
2023-05-17T02:16:50.470Z,13.20
2023-05-17T02:19:16.858Z,14.80
2023-05-17T02:21:43.160Z,11.40
2023-05-17T02:24:09.511Z,12.10
2023-05-17T02:26:35.875Z,11.80
2023-05-17T02:29:02.445Z,11.70
2023-05-17T02:31:30.811Z,13.10
2023-05-17T02:33:57.110Z,14.00
2023-05-17T02:36:25.022Z,12.50
2023-05-17T02:38:51.550Z,13.40
2023-05-17T02:41:18.083Z,13.80
2023-05-17T02:43:45.051Z,13.80
2023-05-17T02:46:11.493Z,10.70
2023-05-17T02:48:37.848Z,10.90
2023-05-17T02:51:04.290Z,12.00
2023-05-17T02:53:30.681Z,11.40
2023-05-17T02:55:57.593Z,11.90
2023-05-17T02:58:24.635Z,15.00
2023-05-17T03:00:51.395Z,10.70
2023-05-17T03:03:19.013Z,10.90
2023-05-17T03:05:46.957Z,11.60
2023-05-17T03:08:13.757Z,12.90
2023-05-17T03:10:40.468Z,10.70
2023-05-17T03:13:08.688Z,9.40
2023-05-17T03:15:37.455Z,9.90
2023-05-17T03:18:03.846Z,9.80
2023-05-17T03:20:30.617Z,10.80
2023-05-17T03:22:57.137Z,16.50
2023-05-17T03:25:24.218Z,7.70
2023-05-17T03:27:50.872Z,10.40
2023-05-17T03:30:17.860Z,11.60
2023-05-17T03:32:45.032Z,13.10
2023-05-17T03:35:11.838Z,12.10
2023-05-17T03:37:40.549Z,12.20
2023-05-17T03:40:07.740Z,12.40
2023-05-17T03:42:34.112Z,11.10
2023-05-17T03:45:03.390Z,9.60
2023-05-17T03:47:29.979Z,10.20
2023-05-17T03:49:56.634Z,11.60
2023-05-17T03:52:23.485Z,11.20
2023-05-17T03:54:50.666Z,9.90
2023-05-17T03:57:17.643Z,11.20
2023-05-17T03:59:45.285Z,13.20
2023-05-17T04:02:11.816Z,10.50
2023-05-17T04:04:39.419Z,10.70
2023-05-17T04:07:05.949Z,9.50
2023-05-17T04:09:34.288Z,10.30
2023-05-17T04:12:00.942Z,8.80
2023-05-17T04:14:27.900Z,9.60
2023-05-17T04:16:55.164Z,5.80
2023-05-17T04:19:22.067Z,8.50
2023-05-17T04:21:51.373Z,8.30
2023-05-17T04:24:18.700Z,10.70
2023-05-17T04:26:47.308Z,7.30
2023-05-17T04:29:13.675Z,8.60
2023-05-17T04:31:40.421Z,8.20
2023-05-17T04:34:07.499Z,8.50
2023-05-17T04:36:33.874Z,8.70
2023-05-17T04:39:02.465Z,10.50
2023-05-17T04:41:29.048Z,8.80
2023-05-17T04:43:55.953Z,8.60
2023-05-17T04:46:27.996Z,8.50
2023-05-17T04:48:55.692Z,10.30
2023-05-17T04:51:22.973Z,12.40
2023-05-17T04:53:49.404Z,12.70
2023-05-17T04:56:17.613Z,9.10
2023-05-17T04:58:44.205Z,10.70
2023-05-17T05:01:12.894Z,7.00
2023-05-17T05:03:39.418Z,9.60
2023-05-17T05:06:06.770Z,8.50
2023-05-17T05:08:34.090Z,10.80
2023-05-17T05:11:00.553Z,9.30
2023-05-17T05:13:27.393Z,9.50
2023-05-17T05:15:53.765Z,8.80
2023-05-17T05:18:20.274Z,6.10
2023-05-17T05:20:49.164Z,9.30
2023-05-17T05:23:17.865Z,7.20
2023-05-17T05:25:46.517Z,6.00
2023-05-17T05:28:13.551Z,7.70
2023-05-17T05:30:40.456Z,5.30
2023-05-17T05:33:07.747Z,6.00
2023-05-17T05:35:34.497Z,6.40
2023-05-17T05:38:01.110Z,6.70
2023-05-17T05:40:28.245Z,8.30
2023-05-17T05:42:55.755Z,8.10
2023-05-17T05:45:22.259Z,5.40
2023-05-17T05:47:49.108Z,6.20
2023-05-17T05:50:15.975Z,6.90
2023-05-17T05:52:42.862Z,5.60
2023-05-17T05:55:09.862Z,5.20
2023-05-17T05:57:36.350Z,4.70
2023-05-17T06:00:04.192Z,5.30
2023-05-17T06:02:39.393Z,5.90
2023-05-17T06:05:09.246Z,4.80
2023-05-17T06:07:36.078Z,5.30
2023-05-17T06:10:02.719Z,4.60
2023-05-17T06:12:29.256Z,5.60
2023-05-17T06:14:55.830Z,6.10
2023-05-17T06:17:22.186Z,4.90
2023-05-17T06:19:50.082Z,5.20
2023-05-17T06:22:16.506Z,5.30
2023-05-17T06:24:42.777Z,6.00
2023-05-17T06:27:09.150Z,5.50
2023-05-17T06:29:36.661Z,6.50
2023-05-17T06:32:03.836Z,5.00
2023-05-17T06:34:30.170Z,4.00
2023-05-17T06:36:58.110Z,5.20
2023-05-17T06:39:24.882Z,4.80
2023-05-17T06:41:51.204Z,4.60
2023-05-17T06:44:17.650Z,4.00
2023-05-17T06:46:43.984Z,4.60
2023-05-17T06:49:12.672Z,5.30
2023-05-17T06:51:39.522Z,4.90
2023-05-17T06:54:05.851Z,6.10
2023-05-17T06:56:32.179Z,6.40
2023-05-17T06:58:59.038Z,4.70
2023-05-17T07:01:25.513Z,5.30
2023-05-17T07:03:52.480Z,5.30
2023-05-17T07:06:18.968Z,4.60
2023-05-17T07:08:45.893Z,5.80
2023-05-17T07:11:12.274Z,5.30
2023-05-17T07:13:38.573Z,6.40
2023-05-17T07:16:07.432Z,4.30
2023-05-17T07:18:33.975Z,5.90
2023-05-17T07:21:00.522Z,6.10
2023-05-17T07:23:26.955Z,5.50
2023-05-17T07:25:53.254Z,5.50
2023-05-17T07:28:19.646Z,6.20
2023-05-17T07:30:45.966Z,5.50
2023-05-17T07:33:12.288Z,6.50
2023-05-17T07:35:38.655Z,6.40
2023-05-17T07:38:05.032Z,5.80
2023-05-17T07:40:31.460Z,4.80
2023-05-17T07:42:57.965Z,5.80
2023-05-17T07:45:24.288Z,6.10
2023-05-17T07:47:55.178Z,4.90
2023-05-17T07:50:22.002Z,4.20
2023-05-17T07:52:48.341Z,5.20
2023-05-17T07:55:16.787Z,4.90
2023-05-17T07:57:44.364Z,5.70
2023-05-17T08:00:12.016Z,5.20
2023-05-17T08:02:39.216Z,5.00
2023-05-17T08:05:06.833Z,4.40
2023-05-17T08:07:33.244Z,4.50
2023-05-17T08:09:59.625Z,4.90
2023-05-17T08:12:26.089Z,3.90
2023-05-17T08:14:52.411Z,5.00
2023-05-17T08:17:18.720Z,4.10
2023-05-17T08:19:45.232Z,3.60
2023-05-17T08:22:11.661Z,4.10
2023-05-17T08:24:38.028Z,4.70
2023-05-17T08:27:04.674Z,3.40
2023-05-17T08:29:30.989Z,3.70
2023-05-17T08:31:57.489Z,5.20
2023-05-17T08:34:23.890Z,3.20
2023-05-17T08:36:50.958Z,4.20
2023-05-17T08:39:17.320Z,4.70
2023-05-17T08:41:46.451Z,4.10
2023-05-17T08:44:14.489Z,5.50
2023-05-17T08:46:52.572Z,4.60
2023-05-17T08:49:25.193Z,5.40
2023-05-17T08:51:53.681Z,4.50
2023-05-17T08:54:20.371Z,4.00
2023-05-17T08:56:51.508Z,4.20
2023-05-17T08:59:20.944Z,4.10
2023-05-17T09:01:51.237Z,4.10
2023-05-17T09:04:17.813Z,5.30
2023-05-17T09:06:45.019Z,6.30
2023-05-17T09:09:11.739Z,6.60
2023-05-17T09:11:38.220Z,7.40
2023-05-17T09:14:05.813Z,5.40
2023-05-17T09:16:34.552Z,6.60
2023-05-17T09:19:03.112Z,6.20
2023-05-17T09:21:30.905Z,6.10
2023-05-17T09:24:06.129Z,5.40
2023-05-17T09:26:45.112Z,6.10
2023-05-17T09:29:15.862Z,6.10
2023-05-17T09:31:43.348Z,6.40
2023-05-17T09:34:11.005Z,6.60
2023-05-17T09:36:41.403Z,8.90
2023-05-17T09:39:11.450Z,6.90
2023-05-17T09:41:42.063Z,6.50
2023-05-17T09:44:09.497Z,7.80
2023-05-17T09:46:40.032Z,7.20
2023-05-17T09:49:07.996Z,6.20
2023-05-17T09:51:35.912Z,5.80
2023-05-17T09:54:02.773Z,6.50
2023-05-17T09:56:31.012Z,8.10
2023-05-17T09:59:00.505Z,7.70
2023-05-17T10:01:28.793Z,7.10
2023-05-17T10:03:58.659Z,6.10
2023-05-17T10:06:44.717Z,6.70
2023-05-17T10:09:13.565Z,7.30
2023-05-17T10:11:43.270Z,9.70
2023-05-17T10:14:15.274Z,8.40
2023-05-17T10:16:44.890Z,10.30
2023-05-17T10:19:12.716Z,10.20
2023-05-17T10:21:40.507Z,10.30
2023-05-17T10:24:07.401Z,9.30
2023-05-17T10:26:35.642Z,8.80
2023-05-17T10:29:04.608Z,9.90
2023-05-17T10:31:33.270Z,9.50
2023-05-17T10:34:05.759Z,11.00
2023-05-17T10:36:33.682Z,8.90
2023-05-17T10:39:01.233Z,8.80
2023-05-17T10:41:32.513Z,9.50
2023-05-17T10:44:01.896Z,11.60
2023-05-17T10:46:29.547Z,12.30
2023-05-17T10:48:58.588Z,6.20
2023-05-17T10:51:37.040Z,7.00
2023-05-17T10:54:11.514Z,10.00
2023-05-17T10:56:47.159Z,6.80
2023-05-17T10:59:24.343Z,5.90
2023-05-17T11:02:02.956Z,7.40
2023-05-17T11:04:33.134Z,7.00
2023-05-17T11:07:18.418Z,5.90
2023-05-17T11:09:53.594Z,4.80
2023-05-17T11:12:41.465Z,5.40
2023-05-17T11:17:36.474Z,6.10
2023-05-17T11:20:17.892Z,6.20
2023-05-17T11:22:57.983Z,5.30
2023-05-17T11:25:27.983Z,8.70
2023-05-17T11:27:54.606Z,7.00
2023-05-17T11:30:26.060Z,4.60
2023-05-17T11:32:57.097Z,6.00
2023-05-17T11:35:26.682Z,6.30
2023-05-17T11:38:11.118Z,6.90
2023-05-17T11:40:38.104Z,5.10
2023-05-17T11:43:16.576Z,6.60
2023-05-17T11:45:43.699Z,7.10
2023-05-17T11:48:12.129Z,7.60
2023-05-17T11:50:40.424Z,6.40
2023-05-17T11:53:08.080Z,10.00
2023-05-17T11:55:38.577Z,6.30
2023-05-17T11:58:07.214Z,5.80
2023-05-17T12:00:34.186Z,5.60
2023-05-17T12:03:19.596Z,6.20
2023-05-17T12:05:49.584Z,8.00
2023-05-17T12:08:17.829Z,7.10
2023-05-17T12:10:51.920Z,6.20
2023-05-17T12:13:19.282Z,6.20
2023-05-17T12:15:52.712Z,7.60
2023-05-17T12:18:20.115Z,6.60
2023-05-17T12:20:57.176Z,7.30
2023-05-17T12:23:32.442Z,6.50
2023-05-17T12:26:06.980Z,6.60
2023-05-17T12:28:34.797Z,7.90
2023-05-17T12:31:02.655Z,8.90
2023-05-17T12:33:31.300Z,11.10
2023-05-17T12:35:58.259Z,7.30
2023-05-17T12:38:27.400Z,5.80
2023-05-17T12:40:55.159Z,8.00
2023-05-17T12:43:23.992Z,7.40
2023-05-17T12:45:52.966Z,8.40
2023-05-17T12:48:25.429Z,7.70
2023-05-17T12:50:51.710Z,8.30
2023-05-17T12:53:18.194Z,7.50
2023-05-17T12:55:44.730Z,7.10
2023-05-17T12:58:11.097Z,7.20
2023-05-17T13:00:37.583Z,6.30
2023-05-17T13:03:09.684Z,6.40
2023-05-17T13:05:36.266Z,8.00
2023-05-17T13:08:19.541Z,9.70
2023-05-17T13:10:45.906Z,7.80
2023-05-17T13:13:19.321Z,5.90
2023-05-17T13:15:49.202Z,8.10
2023-05-17T13:18:15.530Z,7.20
2023-05-17T13:20:42.431Z,7.20
2023-05-17T13:23:09.427Z,6.80
2023-05-17T13:25:36.041Z,6.40
2023-05-17T13:28:02.884Z,7.30
2023-05-17T13:30:29.685Z,6.10
2023-05-17T13:32:56.393Z,7.90
2023-05-17T13:35:23.021Z,7.00
2023-05-17T13:37:49.412Z,6.30
2023-05-17T13:40:15.728Z,5.70
2023-05-17T13:42:42.180Z,5.70
2023-05-17T13:45:08.940Z,6.50
2023-05-17T13:47:35.485Z,6.50
2023-05-17T13:50:03.954Z,7.60
2023-05-17T13:52:33.290Z,7.00
2023-05-17T13:55:00.009Z,7.20
2023-05-17T13:57:26.519Z,5.30
2023-05-17T13:59:52.801Z,7.00
2023-05-17T14:02:19.161Z,7.40
2023-05-17T14:04:45.506Z,6.50
2023-05-17T14:07:12.053Z,7.10
2023-05-17T14:09:39.161Z,7.90
2023-05-17T14:12:05.886Z,6.90
2023-05-17T14:14:32.251Z,6.20
2023-05-17T14:16:58.582Z,6.00
2023-05-17T14:19:25.191Z,8.30
2023-05-17T14:21:51.672Z,7.50
2023-05-17T14:24:18.074Z,6.00
2023-05-17T14:26:44.549Z,7.50
2023-05-17T14:29:11.137Z,7.30
2023-05-17T14:31:37.467Z,5.20
2023-05-17T14:34:03.901Z,7.40
2023-05-17T14:36:31.247Z,6.80
2023-05-17T14:38:58.599Z,6.60
2023-05-17T14:41:24.980Z,6.00
2023-05-17T14:43:51.299Z,6.70
2023-05-17T14:46:18.857Z,6.20
2023-05-17T14:48:45.172Z,5.80
2023-05-17T14:51:11.649Z,7.90
2023-05-17T14:53:37.964Z,6.70
2023-05-17T14:56:04.554Z,7.10
2023-05-17T14:58:30.898Z,6.60
2023-05-17T15:01:05.633Z,6.20
2023-05-17T15:03:34.242Z,8.30
2023-05-17T15:06:05.106Z,6.10
2023-05-17T15:08:33.843Z,6.50
2023-05-17T15:11:00.295Z,5.80
2023-05-17T15:13:26.820Z,7.90
2023-05-17T15:15:53.296Z,6.40
2023-05-17T15:18:20.023Z,5.30
2023-05-17T15:20:46.568Z,6.20
2023-05-17T15:23:13.068Z,8.10
2023-05-17T15:25:40.389Z,5.50
2023-05-17T15:28:07.073Z,4.00
2023-05-17T15:30:33.382Z,6.90
2023-05-17T15:33:00.469Z,4.90
2023-05-17T15:35:27.111Z,7.30
2023-05-17T15:37:54.364Z,7.20
2023-05-17T15:40:21.829Z,6.50
2023-05-17T15:42:50.759Z,5.00
2023-05-17T15:45:19.921Z,7.80
2023-05-17T15:47:46.591Z,5.60
2023-05-17T15:50:13.229Z,5.90
2023-05-17T15:52:39.892Z,7.30
2023-05-17T15:55:06.799Z,5.00
2023-05-17T15:57:33.154Z,6.80
2023-05-17T15:59:59.662Z,6.40
2023-05-17T16:02:26.233Z,5.70
2023-05-17T16:04:52.597Z,6.70
2023-05-17T16:07:19.071Z,5.50
2023-05-17T16:09:45.429Z,6.70
2023-05-17T16:12:12.336Z,4.80
2023-05-17T16:14:39.949Z,5.60
2023-05-17T16:17:06.363Z,5.40
2023-05-17T16:19:33.289Z,5.60
2023-05-17T16:21:59.766Z,5.20
2023-05-17T16:24:26.111Z,5.70
2023-05-17T16:26:52.503Z,5.90
2023-05-17T16:29:18.949Z,6.00
2023-05-17T16:31:47.434Z,3.60
2023-05-17T16:34:13.864Z,5.00
2023-05-17T16:36:40.661Z,4.70
2023-05-17T16:39:07.304Z,6.80
2023-05-17T16:41:35.050Z,3.90
2023-05-17T16:44:01.428Z,4.40
2023-05-17T16:46:27.823Z,4.50
2023-05-17T16:48:54.966Z,6.20
2023-05-17T16:51:21.333Z,6.70
2023-05-17T16:53:48.057Z,4.60
2023-05-17T16:56:14.533Z,3.70
2023-05-17T16:58:40.907Z,6.90
2023-05-17T17:01:07.258Z,5.00
2023-05-17T17:03:33.707Z,6.70
2023-05-17T17:06:00.314Z,5.60
2023-05-17T17:08:26.718Z,5.40
2023-05-17T17:10:53.370Z,5.60
2023-05-17T17:13:20.043Z,8.90
2023-05-17T17:15:46.549Z,8.10
2023-05-17T17:18:12.910Z,5.60
2023-05-17T17:20:39.335Z,4.60
2023-05-17T17:23:05.976Z,6.40
2023-05-17T17:25:32.353Z,7.50
2023-05-17T17:27:58.632Z,5.10
2023-05-17T17:30:25.300Z,5.40
2023-05-17T17:32:51.945Z,7.30
2023-05-17T17:35:18.726Z,7.20
2023-05-17T17:37:45.150Z,7.10
2023-05-17T17:40:12.240Z,7.00
2023-05-17T17:42:38.696Z,8.30
2023-05-17T17:45:05.831Z,6.30
2023-05-17T17:47:32.248Z,7.20
2023-05-17T17:49:58.745Z,7.30
2023-05-17T17:52:25.239Z,7.60
2023-05-17T17:54:51.529Z,6.90
2023-05-17T17:57:18.707Z,8.30
2023-05-17T17:59:45.099Z,7.50
2023-05-17T18:02:11.563Z,6.70
2023-05-17T18:04:38.815Z,9.00
2023-05-17T18:07:05.553Z,9.10
2023-05-17T18:09:31.849Z,6.70
2023-05-17T18:11:58.982Z,8.60
2023-05-17T18:14:25.370Z,7.20
2023-05-17T18:16:51.835Z,8.90
2023-05-17T18:19:18.293Z,5.80
2023-05-17T18:21:45.182Z,8.20
2023-05-17T18:24:11.827Z,5.40
2023-05-17T18:26:38.230Z,6.40
2023-05-17T18:29:04.601Z,7.90
2023-05-17T18:31:31.227Z,5.30
2023-05-17T18:33:57.696Z,5.50
2023-05-17T18:36:23.991Z,7.50
2023-05-17T18:38:50.405Z,7.80
2023-05-17T18:41:16.779Z,6.20
2023-05-17T18:43:43.176Z,5.10
2023-05-17T18:46:09.661Z,7.80
2023-05-17T18:48:36.266Z,9.40
2023-05-17T18:51:02.962Z,7.20
2023-05-17T18:53:29.390Z,7.50
2023-05-17T18:56:00.807Z,8.50
2023-05-17T18:58:27.952Z,6.80
2023-05-17T19:00:54.657Z,6.10
2023-05-17T19:03:21.715Z,6.40
2023-05-17T19:05:48.445Z,9.30
2023-05-17T19:08:14.999Z,6.30
2023-05-17T19:10:41.645Z,5.80
2023-05-17T19:13:09.190Z,8.70
2023-05-17T19:15:35.659Z,6.10
2023-05-17T19:18:02.052Z,8.90
2023-05-17T19:20:29.373Z,9.20
2023-05-17T19:22:55.908Z,6.80
2023-05-17T19:25:22.270Z,9.30
2023-05-17T19:27:48.684Z,8.50
2023-05-17T19:30:15.078Z,10.60
2023-05-17T19:32:41.909Z,7.90
2023-05-17T19:35:09.556Z,6.20
2023-05-17T19:37:35.950Z,6.00
2023-05-17T19:40:05.226Z,6.00
2023-05-17T19:42:31.680Z,8.30
2023-05-17T19:44:58.446Z,9.50
2023-05-17T19:47:24.862Z,10.50
2023-05-17T19:49:53.572Z,8.00
2023-05-17T19:52:19.976Z,5.80
2023-05-17T19:54:46.304Z,7.10
2023-05-17T19:57:15.412Z,8.20
2023-05-17T19:59:42.090Z,6.60
2023-05-17T20:02:08.668Z,8.40
2023-05-17T20:04:35.541Z,9.80
2023-05-17T20:07:01.875Z,7.90
2023-05-17T20:09:29.630Z,6.70
2023-05-17T20:11:56.542Z,8.70
2023-05-17T20:14:23.170Z,8.10
2023-05-17T20:16:49.927Z,7.50
2023-05-17T20:19:16.390Z,5.60
2023-05-17T20:21:42.833Z,8.10
2023-05-17T20:24:09.339Z,7.60
2023-05-17T20:26:36.438Z,6.00
2023-05-17T20:29:06.418Z,6.90
2023-05-17T20:31:36.223Z,6.10
2023-05-17T20:34:04.039Z,5.60
2023-05-17T20:36:30.775Z,7.00
2023-05-17T20:38:57.082Z,5.70
2023-05-17T20:41:23.715Z,7.00
2023-05-17T20:43:50.935Z,5.00
2023-05-17T20:46:17.493Z,6.50
2023-05-17T20:48:46.844Z,5.50
2023-05-17T20:51:13.948Z,5.60
2023-05-17T20:53:40.733Z,5.30
2023-05-17T20:56:07.126Z,5.90
2023-05-17T20:58:33.941Z,9.50
2023-05-17T21:01:00.510Z,7.90
2023-05-17T21:03:28.443Z,4.00
2023-05-17T21:05:55.382Z,5.80
2023-05-17T21:08:22.053Z,4.30
2023-05-17T21:10:49.362Z,7.40
2023-05-17T21:13:15.672Z,8.70
2023-05-17T21:15:42.573Z,6.70
2023-05-17T21:18:11.421Z,5.60
2023-05-17T21:20:38.492Z,6.20
2023-05-17T21:23:05.065Z,7.90
2023-05-17T21:25:31.791Z,7.60
2023-05-17T21:27:58.640Z,6.80
2023-05-17T21:30:25.178Z,5.30
2023-05-17T21:32:51.538Z,7.60
2023-05-17T21:35:17.973Z,10.30
2023-05-17T21:37:45.258Z,6.90
2023-05-17T21:40:11.616Z,9.30
2023-05-17T21:42:38.495Z,11.10
2023-05-17T21:45:05.899Z,8.20
2023-05-17T21:47:32.482Z,8.60
2023-05-17T21:49:59.151Z,9.70
2023-05-17T21:52:25.440Z,6.30
2023-05-17T21:54:51.800Z,6.20
2023-05-17T21:57:20.146Z,5.90
2023-05-17T21:59:47.548Z,5.80
2023-05-17T22:02:14.524Z,9.20
2023-05-17T22:04:41.226Z,6.40
2023-05-17T22:07:08.189Z,4.80
2023-05-17T22:09:34.569Z,5.50
2023-05-17T22:12:04.266Z,6.10
2023-05-17T22:14:32.499Z,9.00
2023-05-17T22:16:59.377Z,5.80
2023-05-17T22:19:25.752Z,8.80
2023-05-17T22:21:52.210Z,5.30
2023-05-17T22:24:19.620Z,6.00
2023-05-17T22:26:45.903Z,9.40
2023-05-17T22:29:12.176Z,9.30
2023-05-17T22:31:38.468Z,8.00
2023-05-17T22:34:04.958Z,5.90
2023-05-17T22:36:33.801Z,5.30
2023-05-17T22:39:00.205Z,5.00
2023-05-17T22:41:26.936Z,7.30
2023-05-17T22:43:53.289Z,8.00
2023-05-17T22:46:19.858Z,6.20
2023-05-17T22:48:46.960Z,3.80
2023-05-17T22:51:13.319Z,6.80
2023-05-17T22:53:39.732Z,8.80
2023-05-17T22:56:06.264Z,6.80
2023-05-17T22:58:32.552Z,9.50
2023-05-17T23:00:59.024Z,6.50
2023-05-17T23:03:25.624Z,3.90
2023-05-17T23:06:02.560Z,5.20
2023-05-17T23:08:29.557Z,5.70
2023-05-17T23:10:57.768Z,5.70
2023-05-17T23:13:25.208Z,5.80
2023-05-17T23:15:51.906Z,7.10
2023-05-17T23:18:18.720Z,7.00
2023-05-17T23:20:45.620Z,7.00
2023-05-17T23:23:12.652Z,7.70
2023-05-17T23:25:39.137Z,5.10
2023-05-17T23:28:05.664Z,2.70
2023-05-17T23:30:32.722Z,6.00
2023-05-17T23:32:59.477Z,5.10
2023-05-17T23:35:26.091Z,2.50
2023-05-17T23:37:52.392Z,3.00
2023-05-17T23:40:18.833Z,3.40
2023-05-17T23:42:45.535Z,5.70
2023-05-17T23:45:11.970Z,3.20
2023-05-17T23:47:40.076Z,3.00
2023-05-17T23:50:08.610Z,4.50
2023-05-17T23:52:38.179Z,4.00
2023-05-17T23:55:08.467Z,6.00
2023-05-17T23:57:35.287Z,3.50
